sensor_id;sensor_type;location;lat;lon;timestamp;pressure;altitude;pressure_sealevel;temperature;humidity
24892;BME280;12954;50.688;10.908;2022-09-24T00:02:16;95384.31;;;10.70;47.61
24892;BME280;12954;50.688;10.908;2022-09-24T00:04:45;95381.63;;;10.70;47.61
24892;BME280;12954;50.688;10.908;2022-09-24T00:07:13;95358.00;;;10.57;48.16
24892;BME280;12954;50.688;10.908;2022-09-24T00:09:43;95366.97;;;10.52;48.20
24892;BME280;12954;50.688;10.908;2022-09-24T00:12:12;95370.22;;;10.49;48.58
24892;BME280;12954;50.688;10.908;2022-09-24T00:14:40;95379.47;;;10.38;48.94
24892;BME280;12954;50.688;10.908;2022-09-24T00:17:09;95377.09;;;10.32;49.07
24892;BME280;12954;50.688;10.908;2022-09-24T00:19:38;95378.78;;;10.23;49.25
24892;BME280;12954;50.688;10.908;2022-09-24T00:22:06;95353.59;;;10.03;49.43
24892;BME280;12954;50.688;10.908;2022-09-24T00:24:35;95376.72;;;10.15;49.52
24892;BME280;12954;50.688;10.908;2022-09-24T00:27:22;95378.91;;;10.08;49.96
24892;BME280;12954;50.688;10.908;2022-09-24T00:29:50;95383.25;;;10.03;49.87
24892;BME280;12954;50.688;10.908;2022-09-24T00:32:19;95382.22;;;9.99;50.08
24892;BME280;12954;50.688;10.908;2022-09-24T00:34:48;95383.84;;;9.95;50.15
24892;BME280;12954;50.688;10.908;2022-09-24T00:37:18;95370.47;;;9.80;50.33
24892;BME280;12954;50.688;10.908;2022-09-24T00:39:46;95377.78;;;9.75;50.64
24892;BME280;12954;50.688;10.908;2022-09-24T00:42:17;95372.44;;;9.70;50.80
24892;BME280;12954;50.688;10.908;2022-09-24T00:44:53;95372.47;;;9.65;50.86
24892;BME280;12954;50.688;10.908;2022-09-24T00:47:34;95374.91;;;9.61;51.03
24892;BME280;12954;50.688;10.908;2022-09-24T00:50:18;95366.88;;;9.56;51.24
24892;BME280;12954;50.688;10.908;2022-09-24T00:52:51;95370.91;;;9.54;51.20
24892;BME280;12954;50.688;10.908;2022-09-24T00:55:20;95341.44;;;9.28;51.22
24892;BME280;12954;50.688;10.908;2022-09-24T00:57:51;95373.13;;;9.46;51.27
24892;BME280;12954;50.688;10.908;2022-09-24T01:00:24;95310.06;;;9.09;51.23
24892;BME280;12954;50.688;10.908;2022-09-24T01:02:55;95371.78;;;9.39;51.42
24892;BME280;12954;50.688;10.908;2022-09-24T01:05:25;95378.53;;;9.36;51.44
24892;BME280;12954;50.688;10.908;2022-09-24T01:07:54;95378.84;;;9.35;51.46
24892;BME280;12954;50.688;10.908;2022-09-24T01:10:40;95365.94;;;9.32;51.61
24892;BME280;12954;50.688;10.908;2022-09-24T01:13:29;95367.56;;;9.28;51.85
24892;BME280;12954;50.688;10.908;2022-09-24T01:16:09;95361.34;;;9.27;51.84
24892;BME280;12954;50.688;10.908;2022-09-24T01:18:43;95368.41;;;9.23;52.01
24892;BME280;12954;50.688;10.908;2022-09-24T01:21:22;95348.78;;;9.13;52.00
24892;BME280;12954;50.688;10.908;2022-09-24T01:27:01;95338.59;;;8.94;52.33
24892;BME280;12954;50.688;10.908;2022-09-24T01:29:38;95337.28;;;8.87;52.39
24892;BME280;12954;50.688;10.908;2022-09-24T01:32:14;95346.44;;;8.91;52.76
24892;BME280;12954;50.688;10.908;2022-09-24T01:34:49;95340.78;;;8.87;52.80
24892;BME280;12954;50.688;10.908;2022-09-24T01:37:20;95340.59;;;8.64;53.81
24892;BME280;12954;50.688;10.908;2022-09-24T01:39:51;95342.44;;;8.68;52.96
24892;BME280;12954;50.688;10.908;2022-09-24T01:42:21;95341.41;;;8.64;53.14
24892;BME280;12954;50.688;10.908;2022-09-24T01:44:53;95320.47;;;8.56;53.07
24892;BME280;12954;50.688;10.908;2022-09-24T01:47:29;95341.94;;;8.61;53.40
24892;BME280;12954;50.688;10.908;2022-09-24T01:50:01;95329.31;;;8.57;53.55
24892;BME280;12954;50.688;10.908;2022-09-24T01:52:33;95329.06;;;8.53;53.72
24892;BME280;12954;50.688;10.908;2022-09-24T01:55:05;95328.00;;;8.49;53.91
24892;BME280;12954;50.688;10.908;2022-09-24T01:57:39;95339.00;;;8.48;54.05
24892;BME280;12954;50.688;10.908;2022-09-24T02:00:13;95323.16;;;8.36;54.06
24892;BME280;12954;50.688;10.908;2022-09-24T02:02:45;95325.88;;;8.41;54.11
24892;BME280;12954;50.688;10.908;2022-09-24T02:05:18;95327.47;;;8.37;54.24
24892;BME280;12954;50.688;10.908;2022-09-24T02:07:54;95324.25;;;8.35;54.39
24892;BME280;12954;50.688;10.908;2022-09-24T02:10:28;95324.56;;;8.23;54.64
24892;BME280;12954;50.688;10.908;2022-09-24T02:13:02;95316.25;;;8.15;54.82
24892;BME280;12954;50.688;10.908;2022-09-24T02:15:34;95318.94;;;8.15;54.96
24892;BME280;12954;50.688;10.908;2022-09-24T02:18:08;95321.63;;;8.15;55.35
24892;BME280;12954;50.688;10.908;2022-09-24T02:20:39;95326.44;;;8.18;55.04
24892;BME280;12954;50.688;10.908;2022-09-24T02:23:10;95321.84;;;8.18;54.95
24892;BME280;12954;50.688;10.908;2022-09-24T02:25:43;95319.72;;;8.10;55.33
24892;BME280;12954;50.688;10.908;2022-09-24T02:28:14;95320.53;;;7.96;55.81
24892;BME280;12954;50.688;10.908;2022-09-24T02:30:47;95303.09;;;7.93;55.29
24892;BME280;12954;50.688;10.908;2022-09-24T02:33:17;95297.72;;;7.93;55.38
24892;BME280;12954;50.688;10.908;2022-09-24T02:36:05;95313.03;;;8.03;55.45
24892;BME280;12954;50.688;10.908;2022-09-24T02:38:34;95300.66;;;8.07;55.40
24892;BME280;12954;50.688;10.908;2022-09-24T02:41:03;95292.88;;;8.05;55.45
24892;BME280;12954;50.688;10.908;2022-09-24T02:43:34;95283.19;;;8.04;55.42
24892;BME280;12954;50.688;10.908;2022-09-24T02:46:04;95266.84;;;7.91;55.59
24892;BME280;12954;50.688;10.908;2022-09-24T02:48:33;95283.22;;;7.99;55.77
24892;BME280;12954;50.688;10.908;2022-09-24T02:51:01;95237.84;;;7.77;55.76
24892;BME280;12954;50.688;10.908;2022-09-24T02:53:31;95226.53;;;7.65;56.00
24892;BME280;12954;50.688;10.908;2022-09-24T02:56:00;95264.16;;;7.91;56.13
24892;BME280;12954;50.688;10.908;2022-09-24T02:58:29;95190.59;;;7.46;56.16
24892;BME280;12954;50.688;10.908;2022-09-24T03:00:58;95257.94;;;7.95;56.25
24892;BME280;12954;50.688;10.908;2022-09-24T03:03:28;95262.53;;;8.00;56.27
24892;BME280;12954;50.688;10.908;2022-09-24T03:05:56;95263.59;;;7.99;56.24
24892;BME280;12954;50.688;10.908;2022-09-24T03:08:25;95267.91;;;7.95;56.39
24892;BME280;12954;50.688;10.908;2022-09-24T03:10:54;95272.47;;;7.89;56.41
24892;BME280;12954;50.688;10.908;2022-09-24T03:13:23;95265.78;;;7.82;56.42
24892;BME280;12954;50.688;10.908;2022-09-24T03:15:51;95274.09;;;7.75;56.63
24892;BME280;12954;50.688;10.908;2022-09-24T03:18:20;95260.63;;;7.60;56.72
24892;BME280;12954;50.688;10.908;2022-09-24T03:20:58;95249.09;;;7.54;56.81
24892;BME280;12954;50.688;10.908;2022-09-24T03:23:27;95263.59;;;7.68;57.01
24892;BME280;12954;50.688;10.908;2022-09-24T03:25:56;95259.31;;;7.67;57.03
24892;BME280;12954;50.688;10.908;2022-09-24T03:28:25;95251.03;;;7.74;56.83
24892;BME280;12954;50.688;10.908;2022-09-24T03:30:54;95221.19;;;7.55;56.76
24892;BME280;12954;50.688;10.908;2022-09-24T03:33:29;95240.53;;;7.72;57.01
24892;BME280;12954;50.688;10.908;2022-09-24T03:36:00;95222.81;;;7.56;57.05
24892;BME280;12954;50.688;10.908;2022-09-24T03:38:30;95233.28;;;7.73;57.16
24892;BME280;12954;50.688;10.908;2022-09-24T03:40:59;95239.47;;;7.73;57.30
24892;BME280;12954;50.688;10.908;2022-09-24T03:43:28;95225.75;;;7.75;57.48
24892;BME280;12954;50.688;10.908;2022-09-24T03:45:57;95233.03;;;7.79;57.24
24892;BME280;12954;50.688;10.908;2022-09-24T03:48:26;95200.25;;;7.52;57.05
24892;BME280;12954;50.688;10.908;2022-09-24T03:50:55;95239.47;;;7.73;57.36
24892;BME280;12954;50.688;10.908;2022-09-24T03:53:25;95241.88;;;7.75;57.40
24892;BME280;12954;50.688;10.908;2022-09-24T03:55:55;95238.91;;;7.71;57.43
24892;BME280;12954;50.688;10.908;2022-09-24T03:58:25;95237.84;;;7.67;57.44
24892;BME280;12954;50.688;10.908;2022-09-24T04:00:55;95214.22;;;7.49;57.56
24892;BME280;12954;50.688;10.908;2022-09-24T04:03:24;95250.72;;;7.60;57.70
24892;BME280;12954;50.688;10.908;2022-09-24T04:05:52;95252.34;;;7.61;57.80
24892;BME280;12954;50.688;10.908;2022-09-24T04:08:21;95253.13;;;7.62;57.94
24892;BME280;12954;50.688;10.908;2022-09-24T04:10:52;95236.75;;;7.48;57.77
24892;BME280;12954;50.688;10.908;2022-09-24T04:13:21;95237.81;;;7.57;57.90
24892;BME280;12954;50.688;10.908;2022-09-24T04:15:49;95248.28;;;7.69;57.68
24892;BME280;12954;50.688;10.908;2022-09-24T04:18:18;95250.22;;;7.73;57.60
24892;BME280;12954;50.688;10.908;2022-09-24T04:20:47;95248.84;;;7.76;57.70
24892;BME280;12954;50.688;10.908;2022-09-24T04:23:15;95244.81;;;7.78;57.81
24892;BME280;12954;50.688;10.908;2022-09-24T04:25:43;95247.50;;;7.78;57.80
24892;BME280;12954;50.688;10.908;2022-09-24T04:28:14;95242.13;;;7.78;57.90
24892;BME280;12954;50.688;10.908;2022-09-24T04:30:42;95251.00;;;7.79;58.00
24892;BME280;12954;50.688;10.908;2022-09-24T04:33:10;95242.66;;;7.80;58.02
24892;BME280;12954;50.688;10.908;2022-09-24T04:35:39;95241.59;;;7.82;58.14
24892;BME280;12954;50.688;10.908;2022-09-24T04:38:07;95245.38;;;7.86;58.32
24892;BME280;12954;50.688;10.908;2022-09-24T04:40:37;95254.47;;;7.90;58.40
24892;BME280;12954;50.688;10.908;2022-09-24T04:43:06;95253.13;;;7.92;58.52
24892;BME280;12954;50.688;10.908;2022-09-24T04:45:36;95256.88;;;7.96;58.55
24892;BME280;12954;50.688;10.908;2022-09-24T04:48:05;95252.84;;;7.99;58.62
24892;BME280;12954;50.688;10.908;2022-09-24T04:50:33;95256.88;;;7.96;58.61
24892;BME280;12954;50.688;10.908;2022-09-24T04:53:02;95254.72;;;7.98;58.67
24892;BME280;12954;50.688;10.908;2022-09-24T04:55:30;95255.53;;;8.04;58.66
24892;BME280;12954;50.688;10.908;2022-09-24T04:57:59;95253.66;;;8.09;58.57
24892;BME280;12954;50.688;10.908;2022-09-24T05:00:28;95271.66;;;8.09;58.59
24892;BME280;12954;50.688;10.908;2022-09-24T05:02:59;95261.97;;;8.08;58.75
24892;BME280;12954;50.688;10.908;2022-09-24T05:05:32;95253.91;;;8.08;58.84
24892;BME280;12954;50.688;10.908;2022-09-24T05:08:01;95158.94;;;7.43;58.83
24892;BME280;12954;50.688;10.908;2022-09-24T05:10:30;95249.38;;;8.03;59.00
24892;BME280;12954;50.688;10.908;2022-09-24T05:13:00;95252.31;;;8.02;58.91
24892;BME280;12954;50.688;10.908;2022-09-24T05:15:29;95203.50;;;7.69;59.14
24892;BME280;12954;50.688;10.908;2022-09-24T05:17:59;95240.50;;;7.98;59.12
24892;BME280;12954;50.688;10.908;2022-09-24T05:20:27;95241.06;;;7.95;59.11
24892;BME280;12954;50.688;10.908;2022-09-24T05:22:55;95240.50;;;7.98;59.20
24892;BME280;12954;50.688;10.908;2022-09-24T05:25:24;95245.31;;;8.01;59.13
24892;BME280;12954;50.688;10.908;2022-09-24T05:27:53;95195.44;;;7.69;59.15
24892;BME280;12954;50.688;10.908;2022-09-24T05:30:23;95243.19;;;8.03;59.32
24892;BME280;12954;50.688;10.908;2022-09-24T05:32:52;95243.19;;;8.03;59.38
24892;BME280;12954;50.688;10.908;2022-09-24T05:35:22;95244.28;;;7.87;59.49
24892;BME280;12954;50.688;10.908;2022-09-24T05:37:51;95252.31;;;8.12;59.19
24892;BME280;12954;50.688;10.908;2022-09-24T05:40:20;95255.25;;;8.10;59.34
24892;BME280;12954;50.688;10.908;2022-09-24T05:43:06;95256.06;;;8.11;59.56
24892;BME280;12954;50.688;10.908;2022-09-24T05:45:35;95250.69;;;8.11;59.50
24892;BME280;12954;50.688;10.908;2022-09-24T05:48:03;95259.00;;;8.19;59.53
24892;BME280;12954;50.688;10.908;2022-09-24T05:50:33;95258.72;;;8.21;59.86
24892;BME280;12954;50.688;10.908;2022-09-24T05:53:03;95207.75;;;7.80;59.74
24892;BME280;12954;50.688;10.908;2022-09-24T05:55:32;95263.00;;;8.22;59.65
24892;BME280;12954;50.688;10.908;2022-09-24T05:58:04;95265.97;;;8.20;59.58
24892;BME280;12954;50.688;10.908;2022-09-24T06:00:33;95250.97;;;8.04;59.48
24892;BME280;12954;50.688;10.908;2022-09-24T06:03:05;95255.78;;;8.17;59.55
24892;BME280;12954;50.688;10.908;2022-09-24T06:05:35;95245.84;;;8.18;59.55
24892;BME280;12954;50.688;10.908;2022-09-24T06:08:04;95242.88;;;8.19;59.49
24892;BME280;12954;50.688;10.908;2022-09-24T06:10:35;95239.94;;;8.21;59.49
24892;BME280;12954;50.688;10.908;2022-09-24T06:13:03;95241.50;;;8.22;59.30
24892;BME280;12954;50.688;10.908;2022-09-24T06:15:32;95234.25;;;8.22;59.38
24892;BME280;12954;50.688;10.908;2022-09-24T06:18:00;95229.69;;;8.23;59.37
24892;BME280;12954;50.688;10.908;2022-09-24T06:20:29;95253.34;;;8.26;59.35
24892;BME280;12954;50.688;10.908;2022-09-24T06:22:59;95239.06;;;8.30;59.43
24892;BME280;12954;50.688;10.908;2022-09-24T06:25:28;95223.47;;;8.38;59.42
24892;BME280;12954;50.688;10.908;2022-09-24T06:27:59;95237.16;;;8.46;59.48
24892;BME280;12954;50.688;10.908;2022-09-24T06:30:28;95232.28;;;8.53;59.48
24892;BME280;12954;50.688;10.908;2022-09-24T06:33:00;95240.84;;;8.60;59.54
24892;BME280;12954;50.688;10.908;2022-09-24T06:35:33;95242.47;;;8.61;59.82
24892;BME280;12954;50.688;10.908;2022-09-24T06:38:04;95237.13;;;8.56;59.70
24892;BME280;12954;50.688;10.908;2022-09-24T06:40:33;95248.88;;;8.65;59.47
24892;BME280;12954;50.688;10.908;2022-09-24T06:43:03;95248.34;;;8.68;59.51
24892;BME280;12954;50.688;10.908;2022-09-24T06:45:32;95254.25;;;8.70;59.28
24892;BME280;12954;50.688;10.908;2022-09-24T06:48:03;95250.72;;;8.75;59.28
24892;BME280;12954;50.688;10.908;2022-09-24T06:50:32;95249.38;;;8.77;59.36
24892;BME280;12954;50.688;10.908;2022-09-24T06:53:05;95251.75;;;8.84;59.38
24892;BME280;12954;50.688;10.908;2022-09-24T06:55:34;95251.53;;;8.75;59.94
24892;BME280;12954;50.688;10.908;2022-09-24T06:58:04;95223.56;;;8.71;59.56
24892;BME280;12954;50.688;10.908;2022-09-24T07:00:34;95239.88;;;8.95;59.48
24892;BME280;12954;50.688;10.908;2022-09-24T07:03:03;95141.50;;;8.35;59.65
24892;BME280;12954;50.688;10.908;2022-09-24T07:05:33;95243.31;;;9.06;59.45
24892;BME280;12954;50.688;10.908;2022-09-24T07:08:10;95247.63;;;9.12;59.58
24892;BME280;12954;50.688;10.908;2022-09-24T07:10:41;95185.16;;;8.71;59.50
24892;BME280;12954;50.688;10.908;2022-09-24T07:13:11;95254.53;;;9.23;59.67
24892;BME280;12954;50.688;10.908;2022-09-24T07:15:40;95254.78;;;9.26;59.85
24892;BME280;12954;50.688;10.908;2022-09-24T07:18:09;95219.59;;;9.13;59.72
24892;BME280;12954;50.688;10.908;2022-09-24T07:20:37;95247.44;;;9.37;59.73
24892;BME280;12954;50.688;10.908;2022-09-24T07:23:07;95244.69;;;9.42;59.80
24892;BME280;12954;50.688;10.908;2022-09-24T07:25:38;95257.03;;;9.48;59.84
24892;BME280;12954;50.688;10.908;2022-09-24T07:28:09;95246.25;;;9.53;59.72
24892;BME280;12954;50.688;10.908;2022-09-24T07:30:38;95250.50;;;9.59;59.82
24892;BME280;12954;50.688;10.908;2022-09-24T07:33:07;95260.13;;;9.65;59.71
24892;BME280;12954;50.688;10.908;2022-09-24T07:35:37;95251.31;;;9.60;59.76
24892;BME280;12954;50.688;10.908;2022-09-24T07:38:07;95266.50;;;9.79;59.50
24892;BME280;12954;50.688;10.908;2022-09-24T07:40:37;95266.97;;;9.86;59.30
24892;BME280;12954;50.688;10.908;2022-09-24T07:43:06;95271.75;;;9.94;59.09
24892;BME280;12954;50.688;10.908;2022-09-24T07:45:38;95264.41;;;10.05;58.93
24892;BME280;12954;50.688;10.908;2022-09-24T07:48:08;95264.56;;;10.14;58.90
24892;BME280;12954;50.688;10.908;2022-09-24T07:50:38;95262.06;;;10.22;58.75
24892;BME280;12954;50.688;10.908;2022-09-24T07:53:09;95266.56;;;10.32;58.45
24892;BME280;12954;50.688;10.908;2022-09-24T07:55:39;95171.38;;;9.84;58.27
24892;BME280;12954;50.688;10.908;2022-09-24T07:58:10;95158.19;;;9.82;57.92
24892;BME280;12954;50.688;10.908;2022-09-24T08:00:41;95271.00;;;10.70;57.25
24892;BME280;12954;50.688;10.908;2022-09-24T08:03:09;95263.34;;;10.77;56.89
24892;BME280;12954;50.688;10.908;2022-09-24T08:05:41;95257.91;;;10.82;56.95
24892;BME280;12954;50.688;10.908;2022-09-24T08:08:11;95263.84;;;11.03;56.55
24892;BME280;12954;50.688;10.908;2022-09-24T08:10:42;95225.75;;;10.86;56.39
24892;BME280;12954;50.688;10.908;2022-09-24T08:13:10;95266.47;;;11.27;56.28
24892;BME280;12954;50.688;10.908;2022-09-24T08:15:39;95273.13;;;11.34;56.36
24892;BME280;12954;50.688;10.908;2022-09-24T08:18:08;95249.19;;;11.28;56.08
24892;BME280;12954;50.688;10.908;2022-09-24T08:20:37;95263.97;;;11.54;55.53
24892;BME280;12954;50.688;10.908;2022-09-24T08:23:08;95271.19;;;11.58;55.29
24892;BME280;12954;50.688;10.908;2022-09-24T08:25:37;95270.81;;;11.65;54.86
24892;BME280;12954;50.688;10.908;2022-09-24T08:28:08;95262.66;;;11.70;54.04
24892;BME280;12954;50.688;10.908;2022-09-24T08:30:38;95234.97;;;11.59;53.69
24892;BME280;12954;50.688;10.908;2022-09-24T08:33:07;95259.84;;;11.75;53.16
24892;BME280;12954;50.688;10.908;2022-09-24T08:35:36;95262.19;;;11.82;52.73
24892;BME280;12954;50.688;10.908;2022-09-24T08:38:06;95231.97;;;11.61;52.29
24892;BME280;12954;50.688;10.908;2022-09-24T08:40:38;95258.50;;;11.91;52.06
24892;BME280;12954;50.688;10.908;2022-09-24T08:43:21;95258.63;;;12.00;51.57
24892;BME280;12954;50.688;10.908;2022-09-24T08:45:57;95241.03;;;11.70;51.66
24892;BME280;12954;50.688;10.908;2022-09-24T08:48:46;95241.19;;;11.92;50.88
24892;BME280;12954;50.688;10.908;2022-09-24T08:51:18;95231.41;;;11.96;50.40
24892;BME280;12954;50.688;10.908;2022-09-24T08:53:51;95268.28;;;12.19;50.39
24892;BME280;12954;50.688;10.908;2022-09-24T08:56:26;95269.38;;;12.18;50.60
24892;BME280;12954;50.688;10.908;2022-09-24T08:59:00;95264.47;;;12.20;50.61
24892;BME280;12954;50.688;10.908;2022-09-24T09:01:34;95248.56;;;12.19;50.39
24892;BME280;12954;50.688;10.908;2022-09-24T09:04:19;95117.06;;;11.18;50.65
24892;BME280;12954;50.688;10.908;2022-09-24T09:07:01;95272.03;;;12.37;51.14
24892;BME280;12954;50.688;10.908;2022-09-24T09:09:40;95216.81;;;12.11;51.36
24892;BME280;12954;50.688;10.908;2022-09-24T09:12:14;95083.97;;;11.26;51.44
24892;BME280;12954;50.688;10.908;2022-09-24T09:14:54;95275.00;;;12.54;51.16
24892;BME280;12954;50.688;10.908;2022-09-24T09:17:34;95197.75;;;12.02;50.99
24892;BME280;12954;50.688;10.908;2022-09-24T09:20:13;95283.69;;;12.65;51.00
24892;BME280;12954;50.688;10.908;2022-09-24T09:22:46;95272.47;;;12.71;50.78
24892;BME280;12954;50.688;10.908;2022-09-24T09:25:19;95251.81;;;12.62;50.50
24892;BME280;12954;50.688;10.908;2022-09-24T09:27:56;95261.25;;;12.78;50.58
24892;BME280;12954;50.688;10.908;2022-09-24T09:30:34;95271.28;;;12.77;50.50
24892;BME280;12954;50.688;10.908;2022-09-24T09:33:17;95285.72;;;13.00;50.15
24892;BME280;12954;50.688;10.908;2022-09-24T09:35:54;95282.50;;;12.98;50.23
24892;BME280;12954;50.688;10.908;2022-09-24T09:38:40;95274.28;;;13.03;50.11
24892;BME280;12954;50.688;10.908;2022-09-24T09:41:19;95272.94;;;13.14;50.04
24892;BME280;12954;50.688;10.908;2022-09-24T09:43:53;95270.97;;;13.20;49.62
24892;BME280;12954;50.688;10.908;2022-09-24T09:46:28;95265.22;;;13.21;49.55
24892;BME280;12954;50.688;10.908;2022-09-24T09:49:03;95266.53;;;13.24;49.66
24892;BME280;12954;50.688;10.908;2022-09-24T09:51:37;95271.81;;;13.43;48.41
24892;BME280;12954;50.688;10.908;2022-09-24T09:54:06;95271.59;;;13.39;48.50
24892;BME280;12954;50.688;10.908;2022-09-24T09:56:41;95255.97;;;13.36;48.28
24892;BME280;12954;50.688;10.908;2022-09-24T09:59:16;95274.41;;;13.48;48.26
24892;BME280;12954;50.688;10.908;2022-09-24T10:01:49;95195.25;;;13.01;48.42
24892;BME280;12954;50.688;10.908;2022-09-24T10:04:29;95250.88;;;13.34;48.46
24892;BME280;12954;50.688;10.908;2022-09-24T10:07:05;95270.59;;;13.49;48.53
24892;BME280;12954;50.688;10.908;2022-09-24T10:09:35;95251.75;;;13.44;48.52
24892;BME280;12954;50.688;10.908;2022-09-24T10:12:12;95268.94;;;13.61;48.45
24892;BME280;12954;50.688;10.908;2022-09-24T10:14:42;95236.78;;;13.46;48.01
24892;BME280;12954;50.688;10.908;2022-09-24T10:17:18;95271.38;;;13.85;47.14
24892;BME280;12954;50.688;10.908;2022-09-24T10:19:46;95241.69;;;13.58;47.21
24892;BME280;12954;50.688;10.908;2022-09-24T10:22:20;95264.47;;;13.79;47.36
24892;BME280;12954;50.688;10.908;2022-09-24T10:24:50;95257.53;;;13.86;47.38
24892;BME280;12954;50.688;10.908;2022-09-24T10:27:25;95260.16;;;14.00;47.50
24892;BME280;12954;50.688;10.908;2022-09-24T10:29:58;95258.44;;;14.04;47.69
24892;BME280;12954;50.688;10.908;2022-09-24T10:32:46;95259.44;;;14.08;47.35
24892;BME280;12954;50.688;10.908;2022-09-24T10:35:25;95262.16;;;14.08;47.19
24892;BME280;12954;50.688;10.908;2022-09-24T10:37:56;95262.44;;;14.07;47.01
24892;BME280;12954;50.688;10.908;2022-09-24T10:40:27;95265.97;;;14.07;46.79
24892;BME280;12954;50.688;10.908;2022-09-24T10:42:59;95268.88;;;14.11;46.61
24892;BME280;12954;50.688;10.908;2022-09-24T10:45:42;95270.97;;;14.14;46.33
24892;BME280;12954;50.688;10.908;2022-09-24T10:48:20;95275.59;;;14.13;46.21
24892;BME280;12954;50.688;10.908;2022-09-24T10:50:57;95248.69;;;14.03;45.96
24892;BME280;12954;50.688;10.908;2022-09-24T10:53:41;95242.59;;;13.98;45.96
24892;BME280;12954;50.688;10.908;2022-09-24T10:56:17;95280.38;;;14.16;46.10
24892;BME280;12954;50.688;10.908;2022-09-24T11:01:53;95265.69;;;14.17;46.14
24892;BME280;12954;50.688;10.908;2022-09-24T11:04:38;95276.91;;;14.24;45.85
24892;BME280;12954;50.688;10.908;2022-09-24T11:07:31;95255.22;;;14.24;45.93
24892;BME280;12954;50.688;10.908;2022-09-24T11:10:09;95254.34;;;14.37;45.97
24892;BME280;12954;50.688;10.908;2022-09-24T11:12:52;95253.78;;;14.49;45.76
24892;BME280;12954;50.688;10.908;2022-09-24T11:15:39;95254.56;;;14.50;45.46
24892;BME280;12954;50.688;10.908;2022-09-24T11:18:16;95260.03;;;14.27;45.62
24892;BME280;12954;50.688;10.908;2022-09-24T11:20:55;95248.69;;;14.25;46.10
24892;BME280;12954;50.688;10.908;2022-09-24T11:23:40;95244.22;;;14.29;46.16
24892;BME280;12954;50.688;10.908;2022-09-24T11:26:21;95247.94;;;14.33;46.08
24892;BME280;12954;50.688;10.908;2022-09-24T11:29:22;95249.88;;;14.41;45.95
24892;BME280;12954;50.688;10.908;2022-09-24T11:32:08;95247.25;;;14.59;46.04
24892;BME280;12954;50.688;10.908;2022-09-24T11:34:53;95240.16;;;14.80;45.79
24892;BME280;12954;50.688;10.908;2022-09-24T11:37:38;95224.84;;;14.84;45.65
24892;BME280;12954;50.688;10.908;2022-09-24T11:40:18;95240.41;;;15.18;45.41
24892;BME280;12954;50.688;10.908;2022-09-24T11:42:56;95233.59;;;15.37;45.03
24892;BME280;12954;50.688;10.908;2022-09-24T11:45:42;95220.94;;;15.33;44.44
24892;BME280;12954;50.688;10.908;2022-09-24T11:48:26;95242.25;;;15.56;44.58
24892;BME280;12954;50.688;10.908;2022-09-24T11:51:05;95240.19;;;15.62;44.61
24892;BME280;12954;50.688;10.908;2022-09-24T11:53:41;95251.22;;;15.66;44.16
24892;BME280;12954;50.688;10.908;2022-09-24T11:56:14;95242.72;;;15.67;44.14
24892;BME280;12954;50.688;10.908;2022-09-24T11:58:48;95229.63;;;15.78;43.92
24892;BME280;12954;50.688;10.908;2022-09-24T12:01:20;95235.84;;;15.87;43.94
24892;BME280;12954;50.688;10.908;2022-09-24T12:03:54;95237.44;;;15.88;43.64
24892;BME280;12954;50.688;10.908;2022-09-24T12:06:30;95229.28;;;15.88;43.74
24892;BME280;12954;50.688;10.908;2022-09-24T12:09:08;95221.75;;;15.85;43.69
24892;BME280;12954;50.688;10.908;2022-09-24T12:11:46;95228.16;;;15.89;43.30
24892;BME280;12954;50.688;10.908;2022-09-24T12:14:18;95214.13;;;15.70;42.77
24892;BME280;12954;50.688;10.908;2022-09-24T12:16:56;95207.06;;;15.60;43.21
24892;BME280;12954;50.688;10.908;2022-09-24T12:19:30;95228.81;;;15.69;43.59
24892;BME280;12954;50.688;10.908;2022-09-24T12:22:01;95228.81;;;15.69;43.48
24892;BME280;12954;50.688;10.908;2022-09-24T12:24:35;95220.97;;;15.67;43.70
24892;BME280;12954;50.688;10.908;2022-09-24T12:27:09;95220.34;;;15.70;43.65
24892;BME280;12954;50.688;10.908;2022-09-24T12:29:45;95221.31;;;15.66;43.88
24892;BME280;12954;50.688;10.908;2022-09-24T12:32:39;95189.97;;;15.42;43.62
24892;BME280;12954;50.688;10.908;2022-09-24T12:35:37;95228.19;;;15.72;43.83
24892;BME280;12954;50.688;10.908;2022-09-24T12:38:13;95221.47;;;15.78;43.56
24892;BME280;12954;50.688;10.908;2022-09-24T12:41:15;95217.59;;;15.79;43.29
24892;BME280;12954;50.688;10.908;2022-09-24T12:43:50;95224.34;;;15.81;43.76
24892;BME280;12954;50.688;10.908;2022-09-24T12:46:22;95210.59;;;15.78;43.93
24892;BME280;12954;50.688;10.908;2022-09-24T12:48:53;95201.78;;;15.81;43.63
24892;BME280;12954;50.688;10.908;2022-09-24T12:51:23;95239.84;;;15.98;43.49
24892;BME280;12954;50.688;10.908;2022-09-24T12:54:05;95223.34;;;16.03;43.14
24892;BME280;12954;50.688;10.908;2022-09-24T12:56:37;95219.66;;;16.07;43.08
24892;BME280;12954;50.688;10.908;2022-09-24T12:59:23;95201.41;;;15.99;42.86
24892;BME280;12954;50.688;10.908;2022-09-24T13:01:52;95207.19;;;15.98;42.37
24892;BME280;12954;50.688;10.908;2022-09-24T13:04:25;95218.25;;;15.93;42.72
24892;BME280;12954;50.688;10.908;2022-09-24T13:06:55;95218.25;;;15.93;43.10
24892;BME280;12954;50.688;10.908;2022-09-24T13:09:34;95195.53;;;15.89;43.50
24892;BME280;12954;50.688;10.908;2022-09-24T13:12:19;95216.59;;;16.09;43.49
24892;BME280;12954;50.688;10.908;2022-09-24T13:14:55;95205.53;;;16.14;43.08
24892;BME280;12954;50.688;10.908;2022-09-24T13:17:27;95186.91;;;15.87;43.08
24892;BME280;12954;50.688;10.908;2022-09-24T13:19:57;95122.94;;;15.46;43.35
24892;BME280;12954;50.688;10.908;2022-09-24T13:22:29;95205.22;;;16.16;43.08
24892;BME280;12954;50.688;10.908;2022-09-24T13:25:19;95211.75;;;16.23;43.37
24892;BME280;12954;50.688;10.908;2022-09-24T13:27:58;95217.22;;;16.23;43.59
24892;BME280;12954;50.688;10.908;2022-09-24T13:30:36;95176.31;;;15.94;43.50
24892;BME280;12954;50.688;10.908;2022-09-24T13:33:17;95215.97;;;16.12;43.81